Time;durP1;ratioP1;P1;durP2;ratioP2;P2;SDS_P1;SDS_P2;PMS_P1;PMS_P2;Temp;Humidity;BMP_temperature;BMP_pressure;BME280_temperature;BME280_humidity;BME280_pressure;Samples;Min_cycle;Max_cycle;Signal;HPM_P1;HPM_P2
2022/01/27 00:05:47;;;;;;;24.63;9.80;;;;;;;3.84;61.22;99471.25;4362356;32;20159;-88
2022/01/27 00:08:17;;;;;;;28.20;10.07;;;;;;;4.12;60.40;99468.19;4362708;32;20114;-89
2022/01/27 00:11:01;;;;;;;25.60;9.52;;;;;;;3.86;61.20;99476.44;4415372;32;20566;-90
2022/01/27 00:13:32;;;;;;;26.08;9.50;;;;;;;3.60;61.96;99482.09;4425387;32;20104;-87
2022/01/27 00:16:16;;;;;;;27.37;9.15;;;;;;;3.22;63.28;99476.53;4425581;32;20120;-88
2022/01/27 00:18:44;;;;;;;24.70;10.10;;;;;;;3.71;61.81;99470.59;4424071;32;20093;-88
2022/01/27 00:21:10;;;;;;;29.10;10.38;;;;;;;3.52;62.39;99470.03;4410249;32;20430;-89
2022/01/27 00:23:36;;;;;;;26.35;10.13;;;;;;;3.35;62.81;99485.88;4409922;32;20108;-88
2022/01/27 00:26:01;;;;;;;27.77;10.43;;;;;;;3.42;62.67;99481.47;4410035;32;20447;-88
2022/01/27 00:28:27;;;;;;;25.75;9.18;;;;;;;3.48;62.36;99463.12;4409953;32;20149;-88
2022/01/27 00:30:53;;;;;;;25.55;10.18;;;;;;;3.91;61.16;99456.38;4410121;32;20082;-88
2022/01/27 00:33:18;;;;;;;27.20;9.80;;;;;;;3.81;61.21;99450.47;4410015;32;20405;-89
2022/01/27 00:35:44;;;;;;;25.95;10.35;;;;;;;3.85;61.03;99459.09;4409979;32;20129;-88
2022/01/27 00:38:09;;;;;;;26.75;9.77;;;;;;;4.18;60.19;99462.03;4409930;32;20106;-89
2022/01/27 00:40:35;;;;;;;27.37;10.45;;;;;;;4.28;59.70;99448.78;4409917;32;20089;-89
2022/01/27 00:43:00;;;;;;;28.20;10.80;;;;;;;3.84;60.69;99445.19;4409843;32;20113;-88
2022/01/27 00:45:29;;;;;;;25.73;10.55;;;;;;;3.85;60.67;99443.47;4412764;32;20094;-88
2022/01/27 00:47:54;;;;;;;25.33;9.02;;;;;;;3.90;60.64;99433.81;4425055;32;20101;-89
2022/01/27 00:50:20;;;;;;;29.17;9.43;;;;;;;3.56;61.60;99433.53;4425005;32;20081;-88
2022/01/27 00:52:50;;;;;;;27.85;11.07;;;;;;;3.37;62.17;99448.56;4414603;32;20078;-86
2022/01/27 00:55:17;;;;;;;28.87;11.12;;;;;;;3.52;61.81;99440.50;4410075;32;20488;-90
2022/01/27 00:58:13;;;;;;;28.12;10.73;;;;;;;3.35;62.66;99454.63;4409926;32;20171;-89
2022/01/27 01:00:48;;;;;;;27.75;10.48;;;;;;;3.19;62.94;99463.56;4409992;32;20113;-89
2022/01/27 01:03:24;;;;;;;25.50;11.02;;;;;;;3.32;62.59;99457.31;4409966;32;20078;-89
2022/01/27 01:16:26;;;;;;;26.98;9.88;;;;;;;3.76;61.11;99469.66;4409849;32;20098;-89
2022/01/27 01:19:05;;;;;;;28.58;11.15;;;;;;;3.99;60.30;99457.12;4409593;32;20089;-89
2022/01/27 01:21:51;;;;;;;25.83;10.65;;;;;;;4.12;59.91;99457.78;4409613;32;20093;-89
2022/01/27 01:30:19;;;;;;;24.77;9.38;;;;;;;4.37;58.68;99445.16;4409723;32;20169;-89
2022/01/27 01:35:09;;;;;;;26.02;11.07;;;;;;;4.25;58.58;99448.84;4395781;32;20098;-89
2022/01/27 01:37:41;;;;;;;29.17;10.45;;;;;;;4.19;58.63;99440.25;4409672;32;20101;-89
2022/01/27 01:40:10;;;;;;;25.83;9.77;;;;;;;4.32;58.45;99439.16;4409588;32;20129;-89
2022/01/27 01:42:36;;;;;;;25.35;9.80;;;;;;;4.42;58.30;99435.47;4409518;32;20094;-90
2022/01/27 01:45:08;;;;;;;25.62;9.57;;;;;;;4.11;58.84;99432.56;4395684;32;20116;-89
2022/01/27 01:47:34;;;;;;;25.40;9.07;;;;;;;4.11;58.86;99433.44;4409595;32;20113;-89
2022/01/27 01:49:59;;;;;;;25.55;9.55;;;;;;;4.21;58.42;99430.66;4409436;32;20403;-89
2022/01/27 01:52:25;;;;;;;23.05;9.23;;;;;;;4.04;59.00;99433.59;4409483;32;20086;-88
2022/01/27 01:54:51;;;;;;;22.05;8.55;;;;;;;4.07;58.65;99438.72;4409349;32;20398;-89
2022/01/27 01:57:17;;;;;;;25.33;9.65;;;;;;;4.07;58.75;99436.97;4409384;32;20453;-90
2022/01/27 01:59:42;;;;;;;28.70;9.52;;;;;;;4.09;58.71;99440.41;4395668;32;20098;-89
2022/01/27 02:02:12;;;;;;;23.50;8.93;;;;;;;4.09;58.64;99456.06;4409281;32;20344;-90
2022/01/27 02:04:38;;;;;;;22.58;9.65;;;;;;;3.84;59.31;99439.97;4409195;32;20112;-90
2022/01/27 02:07:10;;;;;;;26.62;8.63;;;;;;;3.94;58.67;99440.72;4409391;32;20129;-90
2022/01/27 02:18:01;;;;;;;26.83;8.80;;;;;;;4.39;57.42;99406.84;4376919;32;20156;-89
2022/01/27 02:20:28;;;;;;;25.70;10.18;;;;;;;4.00;58.23;99411.91;4376513;32;20178;-89
2022/01/27 02:22:53;;;;;;;27.37;9.93;;;;;;;3.71;59.03;99410.66;4376700;32;20102;-89
2022/01/27 02:25:19;;;;;;;26.70;9.80;;;;;;;4.02;58.27;99414.47;4376696;32;20356;-89
2022/01/27 02:27:45;;;;;;;23.15;8.90;;;;;;;4.02;58.15;99402.31;4376700;32;20122;-88
2022/01/27 02:30:11;;;;;;;22.58;9.00;;;;;;;4.17;57.96;99405.53;4377543;32;20134;-89
2022/01/27 02:32:36;;;;;;;21.70;8.13;;;;;;;4.40;57.28;99399.87;4365851;32;20102;-89
2022/01/27 02:35:03;;;;;;;22.73;8.35;;;;;;;4.20;57.32;99414.16;4366145;32;20760;-89
2022/01/27 02:37:29;;;;;;;25.15;8.77;;;;;;;4.30;57.09;99393.97;4366478;32;20430;-89
2022/01/27 02:39:54;;;;;;;22.73;8.60;;;;;;;3.94;57.97;99386.81;4378548;32;20110;-89
2022/01/27 02:42:25;;;;;;;22.23;8.23;;;;;;;4.13;57.41;99386.47;4378665;32;20091;-89
2022/01/27 02:45:09;;;;;;;22.85;8.18;;;;;;;4.12;57.46;99379.53;4378717;32;20086;-89
2022/01/27 02:47:35;;;;;;;24.27;8.25;;;;;;;4.17;57.28;99382.91;4366073;32;20148;-89
2022/01/27 02:50:00;;;;;;;24.65;9.07;;;;;;;3.96;58.00;99389.41;4378296;32;20222;-89
2022/01/27 02:52:26;;;;;;;23.65;9.48;;;;;;;4.24;57.38;99391.50;4399683;32;20452;-89
2022/01/27 02:54:52;;;;;;;20.27;7.43;;;;;;;4.17;57.30;99388.12;4410739;32;20082;-89
2022/01/27 02:57:19;;;;;;;23.87;8.07;;;;;;;3.96;57.73;99381.59;4396946;32;20153;-90
2022/01/27 02:59:44;;;;;;;21.90;8.43;;;;;;;4.17;57.17;99393.34;4410623;32;20102;-90
2022/01/27 03:02:10;;;;;;;24.70;8.60;;;;;;;3.58;58.72;99397.88;4410566;32;20082;-89
2022/01/27 03:04:36;;;;;;;21.40;7.75;;;;;;;3.99;57.92;99389.34;4410537;32;20082;-90
2022/01/27 03:07:04;;;;;;;21.55;8.40;;;;;;;4.07;57.69;99383.97;4410589;32;20053;-90
2022/01/27 03:09:30;;;;;;;26.85;10.13;;;;;;;3.90;58.23;99387.75;4410480;32;20153;-89
2022/01/27 03:12:11;;;;;;;24.92;9.63;;;;;;;3.59;59.11;99387.41;4396786;32;20093;-89
2022/01/27 03:14:37;;;;;;;23.50;9.85;;;;;;;3.97;58.26;99393.72;4397394;32;20082;-90
2022/01/27 03:17:04;;;;;;;24.58;9.52;;;;;;;3.64;59.53;99401.22;4410475;32;20116;-90
2022/01/27 03:19:30;;;;;;;25.02;9.43;;;;;;;3.64;59.23;99390.81;4410598;32;20102;-90
2022/01/27 03:21:56;;;;;;;23.60;8.75;;;;;;;3.72;58.91;99407.16;4396587;32;20089;-90
2022/01/27 03:24:23;;;;;;;24.50;9.05;;;;;;;3.45;59.76;99394.59;4396827;32;20100;-91
2022/01/27 03:26:49;;;;;;;27.30;9.15;;;;;;;3.34;60.10;99395.62;4410455;32;20197;-91
2022/01/27 03:29:17;;;;;;;23.25;9.25;;;;;;;3.45;59.70;99376.37;4410345;32;20378;-90
2022/01/27 03:31:43;;;;;;;24.85;9.63;;;;;;;3.77;58.94;99388.88;4396909;32;20120;-91
2022/01/27 03:34:09;;;;;;;24.90;9.60;;;;;;;3.63;59.16;99398.66;4410387;32;20090;-91
2022/01/27 03:36:34;;;;;;;26.90;9.82;;;;;;;3.61;59.03;99397.81;4396779;32;20133;-90
2022/01/27 03:39:00;;;;;;;21.50;8.85;;;;;;;3.66;58.90;99391.63;4410376;32;20093;-90
2022/01/27 03:41:31;;;;;;;32.67;9.30;;;;;;;3.26;59.98;99375.78;4410327;32;20382;-90
2022/01/27 03:43:56;;;;;;;26.42;10.55;;;;;;;3.10;60.41;99385.59;4410435;32;20110;-90
2022/01/27 03:46:22;;;;;;;21.12;7.93;;;;;;;3.56;59.43;99377.06;4410171;32;20451;-89
2022/01/27 03:48:47;;;;;;;22.00;9.38;;;;;;;3.22;59.89;99368.91;4410274;32;20121;-90
2022/01/27 03:51:13;;;;;;;20.95;8.63;;;;;;;3.47;59.47;99364.19;4410314;32;20639;-90
2022/01/27 03:53:38;;;;;;;20.62;8.95;;;;;;;3.22;59.86;99372.38;4410184;32;20082;-89
2022/01/27 03:56:04;;;;;;;20.92;7.62;;;;;;;3.50;58.99;99370.19;4410331;32;20176;-90
2022/01/27 03:58:29;;;;;;;22.90;9.07;;;;;;;3.47;58.57;99366.78;4410222;32;20098;-90
2022/01/27 04:00:55;;;;;;;21.52;8.90;;;;;;;3.40;58.68;99362.56;4410247;32;20086;-89
2022/01/27 04:03:22;;;;;;;21.00;7.68;;;;;;;3.71;58.01;99362.91;4410153;32;20204;-90
2022/01/27 04:05:55;;;;;;;19.90;7.40;;;;;;;3.94;57.24;99365.12;4396610;32;20524;-90
2022/01/27 04:08:22;;;;;;;22.65;8.90;;;;;;;3.85;57.13;99366.13;4410322;32;20156;-90
2022/01/27 04:10:48;;;;;;;20.30;8.23;;;;;;;3.71;57.38;99368.97;4421844;32;20143;-89
2022/01/27 04:13:14;;;;;;;22.42;8.60;;;;;;;3.93;56.82;99372.06;4410210;32;20156;-89
2022/01/27 04:15:42;;;;;;;19.58;8.23;;;;;;;4.08;56.50;99360.50;4410062;32;20210;-90
2022/01/27 04:18:09;;;;;;;22.48;8.98;;;;;;;4.07;56.49;99356.16;4410088;32;20159;-90
2022/01/27 04:20:36;;;;;;;20.80;8.77;;;;;;;4.32;55.98;99355.69;4396191;32;20115;-90
2022/01/27 04:23:02;;;;;;;20.12;8.23;;;;;;;4.24;55.81;99357.59;4410066;32;20182;-90
2022/01/27 04:25:27;;;;;;;21.85;9.02;;;;;;;4.14;55.82;99369.94;4410082;32;20118;-90
2022/01/27 04:27:57;;;;;;;21.77;8.20;;;;;;;4.32;55.34;99356.53;4410151;32;20098;-90
2022/01/27 04:30:25;;;;;;;22.33;8.30;;;;;;;3.84;56.58;99366.16;4409919;32;20605;-89
2022/01/27 04:32:59;;;;;;;19.83;9.02;;;;;;;3.96;56.17;99352.91;4410192;32;20090;-91
2022/01/27 04:35:27;;;;;;;24.12;9.32;;;;;;;4.14;55.86;99342.12;4410108;32;20128;-89
2022/01/27 04:38:14;;;;;;;20.42;8.55;;;;;;;4.08;56.01;99352.66;4410103;32;20141;-90
2022/01/27 04:43:39;;;;;;;22.42;9.20;;;;;;;4.09;55.96;99364.78;4410051;32;20086;-89
2022/01/27 04:48:41;;;;;;;20.73;8.23;;;;;;;4.25;55.48;99359.28;4409747;32;20098;-89
2022/01/27 04:51:10;;;;;;;22.00;9.15;;;;;;;4.48;55.19;99364.94;4409993;32;20120;-90
2022/01/27 04:53:42;;;;;;;23.27;9.85;;;;;;;4.41;54.93;99359.88;4409405;32;20156;-89
2022/01/27 04:56:12;;;;;;;25.08;9.80;;;;;;;4.27;55.51;99374.03;4410002;32;20128;-90
2022/01/27 04:58:37;;;;;;;24.70;9.98;;;;;;;4.50;54.78;99373.59;4409935;32;20480;-89
2022/01/27 05:01:04;;;;;;;22.20;9.13;;;;;;;4.32;55.13;99369.56;4396071;32;20185;-90
2022/01/27 05:03:47;;;;;;;22.75;9.38;;;;;;;4.44;54.93;99365.00;4396284;32;20078;-90
2022/01/27 05:06:12;;;;;;;22.92;9.40;;;;;;;4.40;54.78;99366.81;4409877;32;20106;-89
2022/01/27 05:08:38;;;;;;;22.77;9.57;;;;;;;4.57;54.32;99370.84;4396278;32;20450;-89
2022/01/27 05:13:37;;;;;;;23.42;9.02;;;;;;;4.67;54.07;99364.53;4409883;32;20113;-90
2022/01/27 05:16:03;;;;;;;22.30;9.02;;;;;;;4.71;53.98;99360.94;4409802;32;20102;-91
2022/01/27 05:18:28;;;;;;;23.17;9.43;;;;;;;4.80;53.74;99365.97;4409737;32;20116;-90
2022/01/27 05:20:54;;;;;;;20.33;8.38;;;;;;;4.67;53.92;99359.31;4404724;32;20396;-92
2022/01/27 05:23:19;;;;;;;21.10;8.55;;;;;;;4.69;54.10;99354.91;4399930;32;20098;-90
2022/01/27 05:25:44;;;;;;;23.55;9.43;;;;;;;4.47;54.61;99357.97;4407986;32;20156;-91
2022/01/27 05:28:10;;;;;;;23.25;9.65;;;;;;;4.29;54.95;99355.75;4409608;32;20140;-90
2022/01/27 05:30:36;;;;;;;25.48;9.63;;;;;;;4.25;55.51;99359.28;4395851;32;20149;-91
2022/01/27 05:33:01;;;;;;;24.35;9.27;;;;;;;4.45;54.82;99353.69;4409629;32;20090;-91
2022/01/27 05:35:27;;;;;;;25.83;9.85;;;;;;;4.60;54.71;99355.13;4409673;32;20105;-91
2022/01/27 05:37:53;;;;;;;24.17;9.80;;;;;;;4.54;54.64;99345.69;4409611;32;20097;-90
2022/01/27 05:40:18;;;;;;;24.15;9.65;;;;;;;4.56;54.67;99336.06;4409574;32;20086;-86
2022/01/27 05:42:44;;;;;;;22.92;9.05;;;;;;;4.16;55.76;99330.81;4409562;32;20460;-90
2022/01/27 05:45:09;;;;;;;25.65;10.35;;;;;;;3.76;57.08;99321.13;4395723;32;20111;-90
2022/01/27 05:47:36;;;;;;;25.77;10.35;;;;;;;3.64;57.55;99323.06;4409346;32;20129;-89
2022/01/27 05:50:02;;;;;;;27.98;11.55;;;;;;;3.59;57.78;99327.50;4395524;32;20090;-88
2022/01/27 05:52:27;;;;;;;31.45;11.88;;;;;;;3.67;57.60;99327.34;4395664;32;20373;-88
2022/01/27 05:54:52;;;;;;;29.30;12.13;;;;;;;3.64;57.67;99317.84;4409350;32;20097;-88
2022/01/27 05:57:18;;;;;;;31.55;12.27;;;;;;;3.61;57.95;99341.38;4409331;32;20089;-89
2022/01/27 05:59:43;;;;;;;28.58;11.38;;;;;;;3.43;58.58;99339.06;4409364;32;20164;-88
2022/01/27 06:02:09;;;;;;;29.90;11.70;;;;;;;3.13;59.42;99320.47;4409423;32;20146;-90
2022/01/27 06:04:34;;;;;;;30.10;11.38;;;;;;;3.46;58.52;99320.81;4408127;32;20102;-89
2022/01/27 06:06:59;;;;;;;30.23;11.60;;;;;;;3.29;59.27;99334.94;4409277;32;20094;-87
2022/01/27 06:09:25;;;;;;;27.48;11.40;;;;;;;3.34;59.05;99325.31;4409112;32;20085;-88
2022/01/27 06:11:50;;;;;;;29.33;12.20;;;;;;;3.32;59.10;99321.88;4395470;32;20126;-88
2022/01/27 06:14:16;;;;;;;27.58;11.25;;;;;;;3.44;58.81;99340.78;4409149;32;20508;-87
2022/01/27 06:16:44;;;;;;;28.02;11.73;;;;;;;3.45;59.02;99335.53;4409073;32;20111;-88
2022/01/27 06:19:09;;;;;;;27.05;11.52;;;;;;;3.53;58.41;99348.44;4409164;32;20106;-88
2022/01/27 06:21:35;;;;;;;30.33;12.15;;;;;;;3.66;58.23;99346.50;4409006;32;20489;-89
2022/01/27 06:24:02;;;;;;;26.83;10.95;;;;;;;3.96;57.29;99347.69;4407235;32;20439;-90
2022/01/27 06:26:29;;;;;;;27.65;12.30;;;;;;;4.23;56.49;99353.25;4408873;32;20570;-88
2022/01/27 06:28:55;;;;;;;27.87;12.00;;;;;;;3.83;57.47;99352.25;4395352;32;20476;-88
2022/01/27 06:31:21;;;;;;;26.15;11.93;;;;;;;4.04;56.91;99363.19;4409016;32;20156;-88
2022/01/27 06:33:46;;;;;;;29.33;12.45;;;;;;;3.95;57.11;99361.59;4408901;32;20098;-88
2022/01/27 06:36:12;;;;;;;28.50;12.48;;;;;;;3.86;57.46;99361.75;4395251;32;20128;-89
2022/01/27 06:38:37;;;;;;;25.92;10.55;;;;;;;3.99;57.02;99351.97;4408878;32;20426;-89
2022/01/27 06:41:03;;;;;;;26.37;11.07;;;;;;;3.77;57.71;99357.59;4408611;32;20140;-89
2022/01/27 06:43:28;;;;;;;23.87;10.23;;;;;;;4.09;56.81;99354.38;4408787;32;20098;-88
2022/01/27 06:45:53;;;;;;;27.40;10.52;;;;;;;3.80;57.29;99354.91;4408775;32;20133;-89
2022/01/27 06:48:19;;;;;;;27.45;10.85;;;;;;;3.82;57.43;99370.53;4411239;32;20123;-87
2022/01/27 06:50:48;;;;;;;26.35;10.80;;;;;;;3.61;57.92;99364.81;4423495;32;20093;-88
2022/01/27 06:53:13;;;;;;;25.40;10.50;;;;;;;3.76;57.96;99362.81;4397693;32;20125;-88
2022/01/27 06:55:39;;;;;;;26.50;10.52;;;;;;;4.03;57.23;99384.94;4423789;32;20086;-87
2022/01/27 06:58:04;;;;;;;26.65;10.90;;;;;;;4.19;56.64;99390.72;4423570;32;20156;-88
2022/01/27 07:00:29;;;;;;;26.23;10.10;;;;;;;4.35;56.27;99386.94;4423510;32;20413;-88
2022/01/27 07:02:55;;;;;;;24.90;10.07;;;;;;;4.37;56.07;99384.31;4423631;32;20094;-89
2022/01/27 07:05:20;;;;;;;22.40;9.32;;;;;;;4.00;56.93;99391.06;4423594;32;20094;-89
2022/01/27 07:07:46;;;;;;;27.37;10.27;;;;;;;4.23;56.46;99377.59;4423497;32;20115;-87
2022/01/27 07:10:11;;;;;;;26.08;9.50;;;;;;;4.19;56.43;99381.16;4423366;32;20089;-87
2022/01/27 07:12:43;;;;;;;26.33;9.73;;;;;;;4.17;56.88;99384.66;4423122;32;20145;-85
2022/01/27 07:15:09;;;;;;;25.33;10.05;;;;;;;4.41;56.08;99371.16;4423884;32;20098;-88
2022/01/27 07:17:35;;;;;;;26.77;10.45;;;;;;;4.46;55.93;99373.66;4425697;32;20151;-89
2022/01/27 07:20:00;;;;;;;27.17;10.38;;;;;;;4.31;56.21;99375.69;4425324;32;20085;-86
2022/01/27 07:22:26;;;;;;;22.08;9.45;;;;;;;4.37;55.96;99372.09;4425792;32;20373;-88
2022/01/27 07:24:51;;;;;;;24.48;10.13;;;;;;;4.04;56.85;99382.31;4419409;32;20090;-89
2022/01/27 07:27:17;;;;;;;23.85;9.70;;;;;;;4.39;56.10;99382.50;4425214;32;20159;-85
2022/01/27 07:29:43;;;;;;;23.65;9.20;;;;;;;4.39;55.98;99369.47;4424719;32;20177;-86
2022/01/27 07:32:08;;;;;;;23.87;9.63;;;;;;;4.58;55.49;99368.22;4410819;32;20127;-85
2022/01/27 07:34:34;;;;;;;25.40;9.88;;;;;;;4.55;55.67;99363.03;4425105;32;20105;-85
2022/01/27 07:37:02;;;;;;;26.02;10.25;;;;;;;4.34;56.09;99359.97;4424820;32;20139;-84
2022/01/27 07:39:27;;;;;;;27.58;10.82;;;;;;;4.37;56.25;99360.81;4425141;32;20082;-86
2022/01/27 07:41:52;;;;;;;26.55;9.88;;;;;;;4.70;55.50;99356.66;4424973;32;20154;-86
2022/01/27 07:44:18;;;;;;;23.38;9.82;;;;;;;4.68;55.04;99346.22;4424776;32;20390;-86
2022/01/27 07:46:43;;;;;;;26.08;9.93;;;;;;;4.50;55.49;99352.72;4424964;32;20486;-85
2022/01/27 07:49:09;;;;;;;24.80;10.13;;;;;;;4.51;55.79;99351.81;4424509;32;20155;-85
2022/01/27 07:51:34;;;;;;;24.58;10.57;;;;;;;4.74;55.00;99353.06;4424704;32;20185;-86
2022/01/27 07:53:59;;;;;;;24.70;10.38;;;;;;;4.70;54.70;99348.81;4424681;32;20145;-85
2022/01/27 07:56:26;;;;;;;23.20;10.60;;;;;;;4.56;55.27;99346.50;4410975;32;20085;-87
2022/01/27 07:58:52;;;;;;;22.27;9.43;;;;;;;4.73;54.83;99353.94;4410805;32;20555;-86
2022/01/27 08:01:18;;;;;;;24.33;10.10;;;;;;;4.46;55.42;99355.41;4424361;32;20094;-85
2022/01/27 08:03:43;;;;;;;26.02;10.38;;;;;;;4.49;55.39;99356.19;4424566;32;20085;-86
2022/01/27 08:06:08;;;;;;;23.92;9.82;;;;;;;4.61;55.25;99343.78;4424226;32;20437;-85
2022/01/27 08:08:34;;;;;;;22.33;9.98;;;;;;;4.83;54.70;99339.81;4424365;32;20086;-86
2022/01/27 08:11:00;;;;;;;21.42;9.23;;;;;;;4.54;55.34;99350.91;4410313;32;20362;-86
2022/01/27 08:13:26;;;;;;;24.85;9.75;;;;;;;4.77;54.39;99346.91;4425260;32;20094;-90
2022/01/27 08:15:52;;;;;;;23.62;9.50;;;;;;;4.93;54.30;99346.53;4411405;32;20170;-86
2022/01/27 08:18:17;;;;;;;26.58;10.13;;;;;;;4.52;55.25;99345.69;4425695;32;20070;-85
2022/01/27 08:20:44;;;;;;;24.25;9.68;;;;;;;4.66;54.97;99350.63;4427331;32;20152;-95
2022/01/27 08:23:10;;;;;;;27.67;10.65;;;;;;;4.56;55.04;99350.84;4427477;32;20123;-92
2022/01/27 08:25:35;;;;;;;23.00;9.18;;;;;;;4.64;54.75;99344.59;4425183;32;20089;-91
2022/01/27 08:28:05;;;;;;;22.52;8.82;;;;;;;4.85;54.22;99345.03;4424636;32;20082;-94
2022/01/27 08:30:38;;;;;;;25.15;9.63;;;;;;;4.49;55.24;99345.75;4425425;32;20098;-92
2022/01/27 08:33:05;;;;;;;24.85;9.30;;;;;;;4.68;54.79;99345.37;4425519;32;20168;-92
2022/01/27 08:35:32;;;;;;;24.83;9.13;;;;;;;4.70;54.65;99338.37;4425342;32;20480;-92
2022/01/27 08:37:57;;;;;;;22.37;9.80;;;;;;;4.77;54.44;99349.53;4425429;32;20093;-92
2022/01/27 08:40:24;;;;;;;22.45;9.15;;;;;;;5.03;53.84;99349.81;4425267;32;20508;-92
2022/01/27 08:42:50;;;;;;;22.20;8.50;;;;;;;5.08;53.45;99344.47;4425305;32;20089;-92
2022/01/27 08:45:17;;;;;;;21.05;8.60;;;;;;;5.14;53.38;99341.72;4425300;32;20148;-92
2022/01/27 08:47:44;;;;;;;26.33;9.57;;;;;;;5.28;52.91;99344.87;4425170;32;20112;-92
2022/01/27 08:50:11;;;;;;;21.75;8.88;;;;;;;5.68;52.33;99330.81;4425184;32;20149;-92
2022/01/27 08:52:38;;;;;;;23.15;9.40;;;;;;;5.85;51.68;99335.59;4411556;32;20104;-92
2022/01/27 08:55:05;;;;;;;22.45;8.05;;;;;;;5.80;51.67;99324.41;4425125;32;20116;-92
2022/01/27 08:57:30;;;;;;;21.17;8.35;;;;;;;5.96;50.77;99322.25;4425205;32;20154;-92
2022/01/27 08:59:56;;;;;;;22.92;8.80;;;;;;;5.97;50.91;99320.50;4425155;32;20405;-92
2022/01/27 09:02:22;;;;;;;22.98;8.85;;;;;;;6.18;50.23;99319.03;4411623;32;20476;-93
2022/01/27 09:04:47;;;;;;;22.67;8.68;;;;;;;6.40;49.84;99314.06;4425375;32;20097;-91
2022/01/27 09:07:15;;;;;;;21.50;8.57;;;;;;;6.42;49.49;99315.72;4425358;32;20058;-93
2022/01/27 09:09:41;;;;;;;20.62;9.30;;;;;;;6.14;50.31;99312.19;4425240;32;20133;-92
2022/01/27 09:12:07;;;;;;;21.30;8.73;;;;;;;6.30;49.64;99323.94;4425357;32;20167;-92
2022/01/27 09:14:33;;;;;;;20.27;9.23;;;;;;;6.42;49.38;99313.09;4425355;32;20149;-92
2022/01/27 09:16:58;;;;;;;22.15;8.20;;;;;;;5.94;50.84;99331.03;4425409;32;20323;-92
2022/01/27 09:19:28;;;;;;;21.67;8.13;;;;;;;6.38;49.53;99326.34;4425297;32;20151;-92
2022/01/27 09:21:54;;;;;;;21.17;8.35;;;;;;;6.66;49.11;99337.72;4411851;32;20109;-91
2022/01/27 09:24:27;;;;;;;23.17;8.55;;;;;;;6.63;49.01;99326.47;4425304;32;20120;-91
2022/01/27 09:26:59;;;;;;;22.85;9.30;;;;;;;6.48;48.92;99331.25;4425339;32;20145;-92
2022/01/27 09:29:25;;;;;;;21.70;7.93;;;;;;;6.28;49.72;99342.28;4412104;32;20113;-92
2022/01/27 09:31:51;;;;;;;19.08;7.78;;;;;;;6.43;49.19;99343.63;4411305;32;20128;-92
2022/01/27 09:34:17;;;;;;;24.60;9.35;;;;;;;6.54;49.04;99340.69;4425174;32;20142;-92
2022/01/27 09:36:42;;;;;;;21.37;8.88;;;;;;;6.36;49.14;99339.47;4411282;32;20125;-93
2022/01/27 09:39:08;;;;;;;23.33;8.52;;;;;;;6.00;50.17;99338.72;4424887;32;20343;-92
2022/01/27 09:41:37;;;;;;;23.50;8.68;;;;;;;6.11;49.87;99331.44;4424814;32;20124;-91
2022/01/27 09:44:03;;;;;;;20.35;8.30;;;;;;;5.70;50.79;99336.00;4424692;32;20483;-92
2022/01/27 09:46:28;;;;;;;22.90;9.15;;;;;;;5.68;51.17;99320.34;4424799;32;20157;-91
2022/01/27 09:48:54;;;;;;;22.98;9.32;;;;;;;5.80;51.12;99334.00;4424641;32;20132;-91
2022/01/27 09:53:56;;;;;;;23.15;9.23;;;;;;;6.10;50.41;99330.59;4410956;32;20145;-92
2022/01/27 09:56:24;;;;;;;22.92;9.18;;;;;;;6.24;50.11;99327.59;4424666;32;20372;-92
2022/01/27 09:58:49;;;;;;;23.38;9.27;;;;;;;6.14;50.27;99323.50;4411072;32;20113;-93
2022/01/27 10:01:15;;;;;;;22.37;8.85;;;;;;;6.40;49.40;99329.78;4424904;32;20081;-91
2022/01/27 10:04:02;;;;;;;22.10;7.95;;;;;;;5.90;50.53;99325.00;4410586;32;20159;-92
2022/01/27 10:06:31;;;;;;;22.48;8.77;;;;;;;5.89;50.65;99321.53;4424746;32;20464;-92
2022/01/27 10:09:12;;;;;;;22.25;8.20;;;;;;;6.28;49.80;99323.97;4411517;32;20129;-93
2022/01/27 10:11:37;;;;;;;21.73;8.55;;;;;;;6.64;48.93;99309.84;4425027;32;20159;-92
2022/01/27 10:14:27;;;;;;;25.30;9.85;;;;;;;6.67;48.63;99315.00;4425102;32;20098;-92
2022/01/27 10:16:55;;;;;;;20.27;7.57;;;;;;;6.63;48.62;99300.31;4410856;32;20093;-92
2022/01/27 10:19:22;;;;;;;19.50;7.85;;;;;;;6.72;48.10;99302.63;4424617;32;20172;-92
2022/01/27 10:21:49;;;;;;;19.20;7.05;;;;;;;6.55;48.32;99290.06;4424453;32;20106;-92
2022/01/27 10:24:19;;;;;;;19.70;7.82;;;;;;;6.40;48.04;99288.75;4410502;32;20124;-91
2022/01/27 10:26:52;;;;;;;19.77;7.75;;;;;;;6.26;48.65;99272.59;4424345;32;20113;-91
2022/01/27 10:29:30;;;;;;;19.80;7.93;;;;;;;6.37;48.50;99262.66;4411307;32;20102;-91
2022/01/27 10:32:08;;;;;;;19.12;7.10;;;;;;;6.57;47.93;99264.69;4424407;32;20098;-92
2022/01/27 10:34:53;;;;;;;22.67;9.02;;;;;;;5.86;49.39;99255.41;4424198;32;20086;-91
2022/01/27 10:37:19;;;;;;;20.92;8.13;;;;;;;5.57;50.41;99253.59;4424465;32;20097;-91
2022/01/27 10:39:50;;;;;;;20.50;8.55;;;;;;;5.62;50.37;99249.94;4424589;32;20357;-91
2022/01/27 10:42:20;;;;;;;22.70;7.72;;;;;;;5.87;49.79;99255.38;4424491;32;20174;-90
2022/01/27 10:44:47;;;;;;;23.52;8.80;;;;;;;5.76;49.98;99249.56;4424538;32;20142;-91
2022/01/27 10:47:20;;;;;;;21.58;8.27;;;;;;;5.76;50.12;99238.25;4424419;32;20086;-92
2022/01/27 10:49:56;;;;;;;22.08;8.32;;;;;;;5.56;50.55;99234.41;4398206;32;20503;-91
2022/01/27 10:52:35;;;;;;;22.70;8.77;;;;;;;5.67;50.63;99239.34;4426619;32;20128;-91
2022/01/27 10:55:13;;;;;;;20.05;8.88;;;;;;;6.02;49.68;99227.06;4413348;32;20135;-90
2022/01/27 10:57:39;;;;;;;24.67;9.48;;;;;;;5.85;49.84;99207.47;4426125;32;20078;-92
2022/01/27 11:00:15;;;;;;;24.15;8.77;;;;;;;5.77;50.21;99219.03;4412025;32;20126;-91
2022/01/27 11:02:57;;;;;;;22.15;8.65;;;;;;;5.77;50.17;99212.06;4411995;32;20101;-92
2022/01/27 11:05:24;;;;;;;22.27;8.70;;;;;;;5.65;50.50;99210.63;4425961;32;20093;-91
2022/01/27 11:07:50;;;;;;;23.95;9.40;;;;;;;5.79;50.33;99222.47;4425885;32;20167;-90
2022/01/27 11:10:17;;;;;;;25.08;8.82;;;;;;;5.76;50.50;99209.50;4412019;32;20405;-91
2022/01/27 11:12:44;;;;;;;22.45;8.20;;;;;;;6.01;49.94;99212.31;4412055;32;20118;-90
2022/01/27 11:15:14;;;;;;;22.42;9.27;;;;;;;6.09;49.67;99212.94;4425843;32;20116;-91
2022/01/27 11:17:41;;;;;;;22.20;8.88;;;;;;;6.23;49.34;99209.91;4425862;32;20101;-90
2022/01/27 11:22:58;;;;;;;24.15;9.68;;;;;;;6.64;48.54;99202.50;4425921;32;20617;-90
2022/01/27 11:27:58;;;;;;;23.08;9.18;;;;;;;6.85;47.93;99193.97;4411866;32;20090;-90
2022/01/27 11:30:44;;;;;;;23.98;8.88;;;;;;;6.85;48.08;99191.34;4411945;32;20128;-92
2022/01/27 11:33:13;;;;;;;23.10;9.52;;;;;;;6.99;47.34;99190.91;4411999;32;20136;-91
2022/01/27 11:35:39;;;;;;;24.02;8.85;;;;;;;6.68;48.13;99186.69;4412074;32;20097;-90
2022/01/27 11:38:05;;;;;;;24.08;9.23;;;;;;;6.98;47.61;99188.34;4425638;32;20085;-91
2022/01/27 11:40:37;;;;;;;20.45;8.60;;;;;;;6.90;47.70;99185.97;4425732;32;20160;-90
2022/01/27 11:43:07;;;;;;;24.60;9.52;;;;;;;7.08;47.30;99177.47;4425715;32;20097;-91
2022/01/27 11:45:37;;;;;;;23.42;9.75;;;;;;;7.21;46.71;99164.81;4425696;32;20149;-91
2022/01/27 11:48:11;;;;;;;23.92;9.80;;;;;;;7.22;46.88;99160.44;4425719;32;20143;-91
2022/01/27 11:50:55;;;;;;;23.60;8.93;;;;;;;7.12;46.61;99162.50;4425614;32;20106;-92
2022/01/27 11:53:42;;;;;;;24.15;10.20;;;;;;;7.15;46.77;99157.19;4425690;32;20152;-91
2022/01/27 11:56:23;;;;;;;22.30;9.57;;;;;;;7.10;47.15;99156.47;4411775;32;20359;-91
2022/01/27 11:58:51;;;;;;;26.80;9.35;;;;;;;7.34;46.52;99161.75;4425600;32;20438;-90
2022/01/27 12:01:27;;;;;;;25.02;9.38;;;;;;;7.32;46.69;99163.59;4411517;32;20632;-90
2022/01/27 12:04:16;;;;;;;25.35;9.82;;;;;;;7.44;46.65;99161.41;4425174;32;20163;-91
2022/01/27 12:07:01;;;;;;;28.33;10.38;;;;;;;7.54;46.14;99163.69;4425591;32;20086;-91
2022/01/27 12:09:28;;;;;;;23.90;10.05;;;;;;;7.42;46.49;99162.37;4417046;32;20085;-91
2022/01/27 12:11:58;;;;;;;24.50;9.80;;;;;;;7.47;46.30;99158.69;4425654;32;20170;-88
2022/01/27 12:14:46;;;;;;;26.10;9.93;;;;;;;7.35;46.41;99155.63;4425548;32;20251;-88
2022/01/27 12:17:16;;;;;;;24.60;10.60;;;;;;;7.31;46.65;99156.66;4415697;32;20142;-88
2022/01/27 12:20:08;;;;;;;27.83;10.40;;;;;;;7.20;46.69;99152.63;4425417;32;20499;-88
2022/01/27 12:22:40;;;;;;;26.62;10.43;;;;;;;7.26;46.86;99146.31;4411814;32;20110;-88
2022/01/27 12:25:06;;;;;;;25.75;10.75;;;;;;;7.30;46.61;99147.91;4425295;32;20515;-89